sensor_id;sensor_type;location;lat;lon;timestamp;temperature;humidity
11423;DHT22;5768;51.476;7.210;2022-07-29T00:02:34;21.20;9.70
11423;DHT22;5768;51.476;7.210;2022-07-29T00:05:37;21.20;9.70
11423;DHT22;5768;51.476;7.210;2022-07-29T00:08:40;21.10;9.80
11423;DHT22;5768;51.476;7.210;2022-07-29T00:11:42;21.20;9.80
11423;DHT22;5768;51.476;7.210;2022-07-29T00:14:44;21.10;9.80
11423;DHT22;5768;51.476;7.210;2022-07-29T00:17:48;21.00;9.80
11423;DHT22;5768;51.476;7.210;2022-07-29T00:20:50;21.00;9.90
11423;DHT22;5768;51.476;7.210;2022-07-29T00:23:52;21.00;9.90
11423;DHT22;5768;51.476;7.210;2022-07-29T00:26:54;20.90;9.90
11423;DHT22;5768;51.476;7.210;2022-07-29T00:29:57;21.00;9.90
11423;DHT22;5768;51.476;7.210;2022-07-29T00:33:00;20.90;9.90
11423;DHT22;5768;51.476;7.210;2022-07-29T00:36:03;21.00;9.90
11423;DHT22;5768;51.476;7.210;2022-07-29T00:39:05;21.00;9.80
11423;DHT22;5768;51.476;7.210;2022-07-29T00:42:07;20.90;9.80
11423;DHT22;5768;51.476;7.210;2022-07-29T00:45:10;20.90;9.80
11423;DHT22;5768;51.476;7.210;2022-07-29T00:48:15;20.90;9.80
11423;DHT22;5768;51.476;7.210;2022-07-29T00:51:17;20.90;9.80
11423;DHT22;5768;51.476;7.210;2022-07-29T00:54:20;20.90;9.80
11423;DHT22;5768;51.476;7.210;2022-07-29T00:57:22;20.90;9.80
11423;DHT22;5768;51.476;7.210;2022-07-29T01:00:27;20.90;9.90
11423;DHT22;5768;51.476;7.210;2022-07-29T01:03:31;20.80;9.80
11423;DHT22;5768;51.476;7.210;2022-07-29T01:06:34;20.80;9.80
11423;DHT22;5768;51.476;7.210;2022-07-29T01:09:37;20.70;9.90
11423;DHT22;5768;51.476;7.210;2022-07-29T01:12:40;20.60;9.90
11423;DHT22;5768;51.476;7.210;2022-07-29T01:15:46;20.60;9.90
11423;DHT22;5768;51.476;7.210;2022-07-29T01:19:00;20.60;9.90
11423;DHT22;5768;51.476;7.210;2022-07-29T01:22:22;20.50;10.00
11423;DHT22;5768;51.476;7.210;2022-07-29T01:25:50;20.60;10.50
11423;DHT22;5768;51.476;7.210;2022-07-29T01:29:11;20.60;10.60
11423;DHT22;5768;51.476;7.210;2022-07-29T01:32:20;20.50;10.00
11423;DHT22;5768;51.476;7.210;2022-07-29T01:35:30;20.50;10.10
11423;DHT22;5768;51.476;7.210;2022-07-29T01:38:40;20.40;10.10
11423;DHT22;5768;51.476;7.210;2022-07-29T01:41:49;20.40;10.10
11423;DHT22;5768;51.476;7.210;2022-07-29T01:45:00;20.40;10.10
11423;DHT22;5768;51.476;7.210;2022-07-29T01:48:11;20.30;10.10
11423;DHT22;5768;51.476;7.210;2022-07-29T01:51:19;20.30;10.10
11423;DHT22;5768;51.476;7.210;2022-07-29T01:54:32;20.30;10.10
11423;DHT22;5768;51.476;7.210;2022-07-29T01:57:42;20.30;10.10
11423;DHT22;5768;51.476;7.210;2022-07-29T02:00:49;20.20;10.10
11423;DHT22;5768;51.476;7.210;2022-07-29T02:03:53;20.30;10.20
11423;DHT22;5768;51.476;7.210;2022-07-29T02:07:01;20.20;10.20
11423;DHT22;5768;51.476;7.210;2022-07-29T02:10:07;20.20;10.20
11423;DHT22;5768;51.476;7.210;2022-07-29T02:13:13;20.10;10.20
11423;DHT22;5768;51.476;7.210;2022-07-29T02:16:21;20.10;10.20
11423;DHT22;5768;51.476;7.210;2022-07-29T02:19:25;20.00;10.30
11423;DHT22;5768;51.476;7.210;2022-07-29T02:22:31;20.00;10.30
11423;DHT22;5768;51.476;7.210;2022-07-29T02:25:35;20.00;10.30
11423;DHT22;5768;51.476;7.210;2022-07-29T02:28:39;20.00;10.30
11423;DHT22;5768;51.476;7.210;2022-07-29T02:31:44;20.00;10.30
11423;DHT22;5768;51.476;7.210;2022-07-29T02:34:49;20.00;10.40
11423;DHT22;5768;51.476;7.210;2022-07-29T02:37:53;20.00;10.40
11423;DHT22;5768;51.476;7.210;2022-07-29T02:41:17;19.90;10.40
11423;DHT22;5768;51.476;7.210;2022-07-29T02:44:24;19.90;10.40
11423;DHT22;5768;51.476;7.210;2022-07-29T02:47:34;19.90;10.40
11423;DHT22;5768;51.476;7.210;2022-07-29T02:50:44;19.80;10.40
11423;DHT22;5768;51.476;7.210;2022-07-29T02:53:53;19.80;10.60
11423;DHT22;5768;51.476;7.210;2022-07-29T02:57:01;19.80;10.50
11423;DHT22;5768;51.476;7.210;2022-07-29T03:00:09;19.80;10.50
11423;DHT22;5768;51.476;7.210;2022-07-29T03:03:16;19.80;10.50
11423;DHT22;5768;51.476;7.210;2022-07-29T03:06:22;19.80;10.50
11423;DHT22;5768;51.476;7.210;2022-07-29T03:09:28;19.80;10.50
11423;DHT22;5768;51.476;7.210;2022-07-29T03:12:31;19.90;10.60
11423;DHT22;5768;51.476;7.210;2022-07-29T03:15:35;19.90;10.60
11423;DHT22;5768;51.476;7.210;2022-07-29T03:18:39;19.90;10.60
11423;DHT22;5768;51.476;7.210;2022-07-29T03:21:42;19.80;10.50
11423;DHT22;5768;51.476;7.210;2022-07-29T03:24:44;19.80;10.60
11423;DHT22;5768;51.476;7.210;2022-07-29T03:27:47;19.90;10.60
11423;DHT22;5768;51.476;7.210;2022-07-29T03:30:50;19.90;10.60
11423;DHT22;5768;51.476;7.210;2022-07-29T03:33:53;19.90;10.60
11423;DHT22;5768;51.476;7.210;2022-07-29T03:36:55;19.90;10.60
11423;DHT22;5768;51.476;7.210;2022-07-29T03:39:58;19.80;10.60
11423;DHT22;5768;51.476;7.210;2022-07-29T03:43:02;19.70;10.60
11423;DHT22;5768;51.476;7.210;2022-07-29T03:49:15;19.00;10.90
11423;DHT22;5768;51.476;7.210;2022-07-29T03:52:18;18.70;11.10
11423;DHT22;5768;51.476;7.210;2022-07-29T03:55:22;18.60;11.20
11423;DHT22;5768;51.476;7.210;2022-07-29T03:58:26;18.60;11.20
11423;DHT22;5768;51.476;7.210;2022-07-29T04:01:29;18.50;11.30
11423;DHT22;5768;51.476;7.210;2022-07-29T04:04:36;18.60;11.30
11423;DHT22;5768;51.476;7.210;2022-07-29T04:07:39;18.70;11.30
11423;DHT22;5768;51.476;7.210;2022-07-29T04:10:41;19.00;11.20
11423;DHT22;5768;51.476;7.210;2022-07-29T04:13:43;18.80;11.20
11423;DHT22;5768;51.476;7.210;2022-07-29T04:16:45;18.60;11.30
11423;DHT22;5768;51.476;7.210;2022-07-29T04:19:49;18.50;11.40
11423;DHT22;5768;51.476;7.210;2022-07-29T04:22:51;18.60;11.30
11423;DHT22;5768;51.476;7.210;2022-07-29T04:25:53;18.50;11.40
11423;DHT22;5768;51.476;7.210;2022-07-29T04:28:55;18.30;11.50
11423;DHT22;5768;51.476;7.210;2022-07-29T04:31:57;18.60;11.50
11423;DHT22;5768;51.476;7.210;2022-07-29T04:35:00;18.30;11.60
11423;DHT22;5768;51.476;7.210;2022-07-29T04:38:03;18.10;11.70
11423;DHT22;5768;51.476;7.210;2022-07-29T04:41:06;18.40;11.80
11423;DHT22;5768;51.476;7.210;2022-07-29T04:44:08;18.40;11.70
11423;DHT22;5768;51.476;7.210;2022-07-29T04:47:10;18.20;11.80
11423;DHT22;5768;51.476;7.210;2022-07-29T04:50:14;18.20;11.80
11423;DHT22;5768;51.476;7.210;2022-07-29T04:53:16;18.30;11.90
11423;DHT22;5768;51.476;7.210;2022-07-29T04:56:18;18.30;11.90
11423;DHT22;5768;51.476;7.210;2022-07-29T04:59:20;18.40;11.90
11423;DHT22;5768;51.476;7.210;2022-07-29T05:02:23;18.50;11.90
11423;DHT22;5768;51.476;7.210;2022-07-29T05:05:26;18.40;11.80
11423;DHT22;5768;51.476;7.210;2022-07-29T05:08:28;18.50;11.90
11423;DHT22;5768;51.476;7.210;2022-07-29T05:11:30;18.70;11.80
11423;DHT22;5768;51.476;7.210;2022-07-29T05:14:32;18.90;11.70
11423;DHT22;5768;51.476;7.210;2022-07-29T05:17:35;18.80;11.80
11423;DHT22;5768;51.476;7.210;2022-07-29T05:20:38;18.80;11.90
11423;DHT22;5768;51.476;7.210;2022-07-29T05:23:40;18.70;12.00
11423;DHT22;5768;51.476;7.210;2022-07-29T05:26:42;18.70;12.10
11423;DHT22;5768;51.476;7.210;2022-07-29T05:29:44;18.80;12.10
11423;DHT22;5768;51.476;7.210;2022-07-29T05:32:47;18.80;12.20
11423;DHT22;5768;51.476;7.210;2022-07-29T05:35:50;18.80;12.20
11423;DHT22;5768;51.476;7.210;2022-07-29T05:38:52;18.80;12.20
11423;DHT22;5768;51.476;7.210;2022-07-29T05:41:55;18.80;12.20
11423;DHT22;5768;51.476;7.210;2022-07-29T05:44:57;18.90;12.10
11423;DHT22;5768;51.476;7.210;2022-07-29T05:47:59;19.00;12.10
11423;DHT22;5768;51.476;7.210;2022-07-29T05:51:03;19.10;12.10
11423;DHT22;5768;51.476;7.210;2022-07-29T05:54:05;19.10;12.10
11423;DHT22;5768;51.476;7.210;2022-07-29T05:57:08;18.90;12.20
11423;DHT22;5768;51.476;7.210;2022-07-29T06:00:11;18.90;12.20
11423;DHT22;5768;51.476;7.210;2022-07-29T06:03:13;19.00;12.10
11423;DHT22;5768;51.476;7.210;2022-07-29T06:06:17;19.20;12.10
11423;DHT22;5768;51.476;7.210;2022-07-29T06:09:19;19.30;12.00
11423;DHT22;5768;51.476;7.210;2022-07-29T06:12:23;19.40;12.00
11423;DHT22;5768;51.476;7.210;2022-07-29T06:15:25;19.50;12.10
11423;DHT22;5768;51.476;7.210;2022-07-29T06:18:27;19.80;12.00
11423;DHT22;5768;51.476;7.210;2022-07-29T06:21:31;19.90;11.90
11423;DHT22;5768;51.476;7.210;2022-07-29T06:24:34;20.00;11.90
11423;DHT22;5768;51.476;7.210;2022-07-29T06:27:41;20.20;11.80
11423;DHT22;5768;51.476;7.210;2022-07-29T06:30:44;20.20;11.80
11423;DHT22;5768;51.476;7.210;2022-07-29T06:33:46;20.30;11.80
11423;DHT22;5768;51.476;7.210;2022-07-29T06:36:49;20.30;11.50
11423;DHT22;5768;51.476;7.210;2022-07-29T06:39:53;20.50;11.40
11423;DHT22;5768;51.476;7.210;2022-07-29T06:43:09;20.70;11.40
11423;DHT22;5768;51.476;7.210;2022-07-29T06:46:13;20.80;11.30
11423;DHT22;5768;51.476;7.210;2022-07-29T06:49:16;20.90;11.30
11423;DHT22;5768;51.476;7.210;2022-07-29T06:52:19;20.90;11.30
11423;DHT22;5768;51.476;7.210;2022-07-29T06:55:21;20.90;11.30
11423;DHT22;5768;51.476;7.210;2022-07-29T06:58:23;21.10;11.30
11423;DHT22;5768;51.476;7.210;2022-07-29T07:01:26;21.20;11.30
11423;DHT22;5768;51.476;7.210;2022-07-29T07:04:28;21.30;11.40
11423;DHT22;5768;51.476;7.210;2022-07-29T07:07:31;21.50;11.30
11423;DHT22;5768;51.476;7.210;2022-07-29T07:10:34;21.60;11.30
11423;DHT22;5768;51.476;7.210;2022-07-29T07:13:36;21.70;11.30
11423;DHT22;5768;51.476;7.210;2022-07-29T07:16:38;21.80;11.30
11423;DHT22;5768;51.476;7.210;2022-07-29T07:19:40;21.90;11.30
11423;DHT22;5768;51.476;7.210;2022-07-29T07:22:43;22.10;11.20
11423;DHT22;5768;51.476;7.210;2022-07-29T07:25:46;22.20;11.20
11423;DHT22;5768;51.476;7.210;2022-07-29T07:28:48;22.30;11.20
11423;DHT22;5768;51.476;7.210;2022-07-29T07:31:50;22.40;11.20
11423;DHT22;5768;51.476;7.210;2022-07-29T07:34:52;22.50;11.10
11423;DHT22;5768;51.476;7.210;2022-07-29T07:37:56;22.50;11.10
11423;DHT22;5768;51.476;7.210;2022-07-29T07:40:59;22.60;11.10
11423;DHT22;5768;51.476;7.210;2022-07-29T07:44:02;22.60;10.90
11423;DHT22;5768;51.476;7.210;2022-07-29T07:47:04;22.50;10.90
11423;DHT22;5768;51.476;7.210;2022-07-29T07:50:09;22.40;11.00
11423;DHT22;5768;51.476;7.210;2022-07-29T07:53:14;22.20;10.90
11423;DHT22;5768;51.476;7.210;2022-07-29T07:56:16;22.10;11.00
11423;DHT22;5768;51.476;7.210;2022-07-29T07:59:19;22.20;11.10
11423;DHT22;5768;51.476;7.210;2022-07-29T08:02:21;22.40;11.00
11423;DHT22;5768;51.476;7.210;2022-07-29T08:05:23;22.50;11.00
11423;DHT22;5768;51.476;7.210;2022-07-29T08:08:26;22.50;10.90
11423;DHT22;5768;51.476;7.210;2022-07-29T08:11:28;22.70;10.90
11423;DHT22;5768;51.476;7.210;2022-07-29T08:14:31;22.70;11.10
11423;DHT22;5768;51.476;7.210;2022-07-29T08:17:34;22.70;11.00
11423;DHT22;5768;51.476;7.210;2022-07-29T08:20:37;22.90;10.90
11423;DHT22;5768;51.476;7.210;2022-07-29T08:23:41;22.90;10.80
11423;DHT22;5768;51.476;7.210;2022-07-29T08:26:49;22.70;10.90
11423;DHT22;5768;51.476;7.210;2022-07-29T08:29:51;22.50;10.90
11423;DHT22;5768;51.476;7.210;2022-07-29T08:32:56;22.40;11.00
11423;DHT22;5768;51.476;7.210;2022-07-29T08:35:58;21.90;11.10
11423;DHT22;5768;51.476;7.210;2022-07-29T08:39:03;21.90;11.20
11423;DHT22;5768;51.476;7.210;2022-07-29T08:42:06;21.80;11.20
11423;DHT22;5768;51.476;7.210;2022-07-29T08:45:08;21.80;11.30
11423;DHT22;5768;51.476;7.210;2022-07-29T08:48:11;21.70;11.40
11423;DHT22;5768;51.476;7.210;2022-07-29T08:51:15;21.60;11.40
11423;DHT22;5768;51.476;7.210;2022-07-29T08:54:21;21.70;11.40
11423;DHT22;5768;51.476;7.210;2022-07-29T08:57:24;21.80;11.40
11423;DHT22;5768;51.476;7.210;2022-07-29T09:00:27;21.80;11.40
11423;DHT22;5768;51.476;7.210;2022-07-29T09:03:32;21.80;11.50
11423;DHT22;5768;51.476;7.210;2022-07-29T09:06:39;21.70;11.60
11423;DHT22;5768;51.476;7.210;2022-07-29T09:09:47;21.70;11.60
11423;DHT22;5768;51.476;7.210;2022-07-29T09:12:49;21.80;11.50
11423;DHT22;5768;51.476;7.210;2022-07-29T09:15:52;21.80;11.50
11423;DHT22;5768;51.476;7.210;2022-07-29T09:18:55;21.40;11.60
11423;DHT22;5768;51.476;7.210;2022-07-29T09:21:58;21.50;11.70
11423;DHT22;5768;51.476;7.210;2022-07-29T09:25:03;21.40;11.90
11423;DHT22;5768;51.476;7.210;2022-07-29T09:28:07;21.10;12.00
11423;DHT22;5768;51.476;7.210;2022-07-29T09:31:09;20.80;12.10
11423;DHT22;5768;51.476;7.210;2022-07-29T09:34:15;20.50;12.20
11423;DHT22;5768;51.476;7.210;2022-07-29T09:37:28;20.30;12.20
11423;DHT22;5768;51.476;7.210;2022-07-29T09:40:32;20.50;12.30
11423;DHT22;5768;51.476;7.210;2022-07-29T09:43:34;20.60;12.30
11423;DHT22;5768;51.476;7.210;2022-07-29T09:46:36;20.60;12.30
11423;DHT22;5768;51.476;7.210;2022-07-29T09:49:53;20.70;12.30
11423;DHT22;5768;51.476;7.210;2022-07-29T09:52:58;20.80;12.20
11423;DHT22;5768;51.476;7.210;2022-07-29T09:56:02;21.00;12.20
11423;DHT22;5768;51.476;7.210;2022-07-29T09:59:05;21.20;12.20
11423;DHT22;5768;51.476;7.210;2022-07-29T10:02:11;21.50;12.10
11423;DHT22;5768;51.476;7.210;2022-07-29T10:05:19;21.60;11.90
11423;DHT22;5768;51.476;7.210;2022-07-29T10:08:25;21.50;11.90
11423;DHT22;5768;51.476;7.210;2022-07-29T10:11:29;21.40;11.90
11423;DHT22;5768;51.476;7.210;2022-07-29T10:14:31;21.30;11.80
11423;DHT22;5768;51.476;7.210;2022-07-29T10:17:34;21.30;11.90
11423;DHT22;5768;51.476;7.210;2022-07-29T10:20:37;21.40;12.00
11423;DHT22;5768;51.476;7.210;2022-07-29T10:23:40;21.50;12.00
11423;DHT22;5768;51.476;7.210;2022-07-29T10:26:44;21.70;11.90
11423;DHT22;5768;51.476;7.210;2022-07-29T10:29:48;21.80;11.80
11423;DHT22;5768;51.476;7.210;2022-07-29T10:33:08;21.90;11.80
11423;DHT22;5768;51.476;7.210;2022-07-29T10:36:27;21.70;11.80
11423;DHT22;5768;51.476;7.210;2022-07-29T10:39:51;21.80;11.80
11423;DHT22;5768;51.476;7.210;2022-07-29T10:43:14;22.00;11.80
11423;DHT22;5768;51.476;7.210;2022-07-29T10:46:20;22.10;11.70
11423;DHT22;5768;51.476;7.210;2022-07-29T10:49:24;22.10;11.70
11423;DHT22;5768;51.476;7.210;2022-07-29T10:53:03;22.20;11.70
11423;DHT22;5768;51.476;7.210;2022-07-29T10:56:23;22.20;11.70
11423;DHT22;5768;51.476;7.210;2022-07-29T10:59:28;22.10;11.80
11423;DHT22;5768;51.476;7.210;2022-07-29T11:02:42;22.00;11.90
11423;DHT22;5768;51.476;7.210;2022-07-29T11:05:56;21.90;11.90
11423;DHT22;5768;51.476;7.210;2022-07-29T11:09:17;22.00;11.90
11423;DHT22;5768;51.476;7.210;2022-07-29T11:12:45;22.10;12.20
11423;DHT22;5768;51.476;7.210;2022-07-29T11:15:56;22.10;12.60
11423;DHT22;5768;51.476;7.210;2022-07-29T11:19:23;22.30;12.50
11423;DHT22;5768;51.476;7.210;2022-07-29T11:22:32;22.30;12.40
11423;DHT22;5768;51.476;7.210;2022-07-29T11:25:35;22.60;12.30
11423;DHT22;5768;51.476;7.210;2022-07-29T11:28:42;22.80;12.00
11423;DHT22;5768;51.476;7.210;2022-07-29T11:31:53;22.90;11.80
11423;DHT22;5768;51.476;7.210;2022-07-29T11:35:16;23.40;11.70
11423;DHT22;5768;51.476;7.210;2022-07-29T11:38:24;23.90;11.70
11423;DHT22;5768;51.476;7.210;2022-07-29T11:41:28;24.30;11.60
11423;DHT22;5768;51.476;7.210;2022-07-29T11:44:54;24.40;11.30
11423;DHT22;5768;51.476;7.210;2022-07-29T11:47:59;24.60;11.30
11423;DHT22;5768;51.476;7.210;2022-07-29T11:51:09;24.40;11.10
11423;DHT22;5768;51.476;7.210;2022-07-29T11:54:13;24.50;11.10
11423;DHT22;5768;51.476;7.210;2022-07-29T11:57:23;24.50;11.10
11423;DHT22;5768;51.476;7.210;2022-07-29T12:00:29;24.40;10.90
11423;DHT22;5768;51.476;7.210;2022-07-29T12:03:34;24.50;11.00
11423;DHT22;5768;51.476;7.210;2022-07-29T12:06:36;24.90;10.90
11423;DHT22;5768;51.476;7.210;2022-07-29T12:09:39;25.30;10.70
11423;DHT22;5768;51.476;7.210;2022-07-29T12:12:41;25.60;10.60
11423;DHT22;5768;51.476;7.210;2022-07-29T12:15:52;25.90;10.50
11423;DHT22;5768;51.476;7.210;2022-07-29T12:18:57;25.80;10.20
11423;DHT22;5768;51.476;7.210;2022-07-29T12:22:00;25.60;10.20
11423;DHT22;5768;51.476;7.210;2022-07-29T12:25:04;25.40;10.30
11423;DHT22;5768;51.476;7.210;2022-07-29T12:28:10;25.50;10.20
11423;DHT22;5768;51.476;7.210;2022-07-29T12:31:16;25.50;10.20
11423;DHT22;5768;51.476;7.210;2022-07-29T12:34:22;26.10;10.20
11423;DHT22;5768;51.476;7.210;2022-07-29T12:37:25;26.80;9.90
11423;DHT22;5768;51.476;7.210;2022-07-29T12:40:27;27.00;9.80
11423;DHT22;5768;51.476;7.210;2022-07-29T12:43:29;27.90;9.60
11423;DHT22;5768;51.476;7.210;2022-07-29T12:46:32;28.40;9.40
11423;DHT22;5768;51.476;7.210;2022-07-29T12:49:35;29.00;9.50
11423;DHT22;5768;51.476;7.210;2022-07-29T12:52:38;29.70;9.30
11423;DHT22;5768;51.476;7.210;2022-07-29T12:55:41;31.00;9.10
11423;DHT22;5768;51.476;7.210;2022-07-29T12:58:44;31.90;8.80
11423;DHT22;5768;51.476;7.210;2022-07-29T13:01:49;31.30;8.70
11423;DHT22;5768;51.476;7.210;2022-07-29T13:04:58;30.60;8.80
11423;DHT22;5768;51.476;7.210;2022-07-29T13:08:10;31.30;8.70
11423;DHT22;5768;51.476;7.210;2022-07-29T13:11:28;32.10;8.60
11423;DHT22;5768;51.476;7.210;2022-07-29T13:14:32;31.70;8.60
11423;DHT22;5768;51.476;7.210;2022-07-29T13:17:40;31.20;8.70
11423;DHT22;5768;51.476;7.210;2022-07-29T13:20:45;30.40;8.80
11423;DHT22;5768;51.476;7.210;2022-07-29T13:23:47;30.00;8.90
11423;DHT22;5768;51.476;7.210;2022-07-29T13:26:50;30.00;8.90
11423;DHT22;5768;51.476;7.210;2022-07-29T13:29:53;30.50;8.90
11423;DHT22;5768;51.476;7.210;2022-07-29T13:32:57;31.30;8.80
11423;DHT22;5768;51.476;7.210;2022-07-29T13:36:00;31.20;8.80
11423;DHT22;5768;51.476;7.210;2022-07-29T13:39:03;31.10;8.70
11423;DHT22;5768;51.476;7.210;2022-07-29T13:42:06;30.40;8.80
11423;DHT22;5768;51.476;7.210;2022-07-29T13:45:10;29.50;9.00
11423;DHT22;5768;51.476;7.210;2022-07-29T13:48:13;29.40;9.00
11423;DHT22;5768;51.476;7.210;2022-07-29T13:51:16;29.20;9.00
11423;DHT22;5768;51.476;7.210;2022-07-29T13:54:18;29.50;9.00
11423;DHT22;5768;51.476;7.210;2022-07-29T13:57:20;30.10;8.90
11423;DHT22;5768;51.476;7.210;2022-07-29T14:00:22;30.70;8.80
11423;DHT22;5768;51.476;7.210;2022-07-29T14:03:25;33.30;8.30
11423;DHT22;5768;51.476;7.210;2022-07-29T14:06:28;33.60;8.10
11423;DHT22;5768;51.476;7.210;2022-07-29T14:09:31;34.30;8.10
11423;DHT22;5768;51.476;7.210;2022-07-29T14:12:33;36.30;7.70
11423;DHT22;5768;51.476;7.210;2022-07-29T14:15:35;35.60;7.70
11423;DHT22;5768;51.476;7.210;2022-07-29T14:18:37;36.10;7.70
11423;DHT22;5768;51.476;7.210;2022-07-29T14:21:41;34.60;7.60
11423;DHT22;5768;51.476;7.210;2022-07-29T14:24:43;34.70;7.80
11423;DHT22;5768;51.476;7.210;2022-07-29T14:27:46;36.50;7.60
11423;DHT22;5768;51.476;7.210;2022-07-29T14:30:48;38.00;7.40
11423;DHT22;5768;51.476;7.210;2022-07-29T14:33:51;40.50;6.90
11423;DHT22;5768;51.476;7.210;2022-07-29T14:36:54;41.20;6.60
11423;DHT22;5768;51.476;7.210;2022-07-29T14:39:57;41.70;6.50
11423;DHT22;5768;51.476;7.210;2022-07-29T14:43:02;43.30;6.30
11423;DHT22;5768;51.476;7.210;2022-07-29T14:46:04;44.00;6.10
11423;DHT22;5768;51.476;7.210;2022-07-29T14:49:07;43.80;6.00
11423;DHT22;5768;51.476;7.210;2022-07-29T14:52:11;44.20;6.30
11423;DHT22;5768;51.476;7.210;2022-07-29T14:55:13;44.20;6.00
11423;DHT22;5768;51.476;7.210;2022-07-29T14:58:15;44.80;5.90
11423;DHT22;5768;51.476;7.210;2022-07-29T15:01:17;45.80;5.90
11423;DHT22;5768;51.476;7.210;2022-07-29T15:04:20;45.80;6.10
11423;DHT22;5768;51.476;7.210;2022-07-29T15:07:23;46.20;5.80
11423;DHT22;5768;51.476;7.210;2022-07-29T15:10:26;45.60;5.90
11423;DHT22;5768;51.476;7.210;2022-07-29T15:13:28;46.00;5.90
11423;DHT22;5768;51.476;7.210;2022-07-29T15:16:30;47.40;5.40
11423;DHT22;5768;51.476;7.210;2022-07-29T15:19:33;47.00;5.40
11423;DHT22;5768;51.476;7.210;2022-07-29T15:22:37;46.70;5.60
11423;DHT22;5768;51.476;7.210;2022-07-29T15:25:41;46.10;5.60
11423;DHT22;5768;51.476;7.210;2022-07-29T15:28:43;45.70;5.50
11423;DHT22;5768;51.476;7.210;2022-07-29T15:31:46;46.10;5.50
11423;DHT22;5768;51.476;7.210;2022-07-29T15:34:48;46.20;5.50
11423;DHT22;5768;51.476;7.210;2022-07-29T15:37:52;44.90;5.60
11423;DHT22;5768;51.476;7.210;2022-07-29T15:40:54;42.80;5.90
11423;DHT22;5768;51.476;7.210;2022-07-29T15:43:56;38.90;6.60
11423;DHT22;5768;51.476;7.210;2022-07-29T15:46:58;38.60;6.80
11423;DHT22;5768;51.476;7.210;2022-07-29T15:50:07;39.20;6.80
11423;DHT22;5768;51.476;7.210;2022-07-29T15:53:16;39.10;6.70
11423;DHT22;5768;51.476;7.210;2022-07-29T15:56:18;38.70;6.80
11423;DHT22;5768;51.476;7.210;2022-07-29T15:59:21;38.40;6.90
11423;DHT22;5768;51.476;7.210;2022-07-29T16:02:23;37.40;7.00
11423;DHT22;5768;51.476;7.210;2022-07-29T16:05:25;36.90;7.10
11423;DHT22;5768;51.476;7.210;2022-07-29T16:08:30;36.60;7.30
11423;DHT22;5768;51.476;7.210;2022-07-29T16:11:32;37.20;7.30
11423;DHT22;5768;51.476;7.210;2022-07-29T16:14:35;37.60;7.10
11423;DHT22;5768;51.476;7.210;2022-07-29T16:17:37;39.00;6.90
11423;DHT22;5768;51.476;7.210;2022-07-29T16:20:40;39.60;6.70
11423;DHT22;5768;51.476;7.210;2022-07-29T16:23:43;40.40;6.60
11423;DHT22;5768;51.476;7.210;2022-07-29T16:26:46;42.20;6.40
11423;DHT22;5768;51.476;7.210;2022-07-29T16:29:49;43.00;6.20
11423;DHT22;5768;51.476;7.210;2022-07-29T16:32:52;40.90;6.40
11423;DHT22;5768;51.476;7.210;2022-07-29T16:35:54;38.70;6.80
11423;DHT22;5768;51.476;7.210;2022-07-29T16:38:58;39.90;6.60
11423;DHT22;5768;51.476;7.210;2022-07-29T16:42:00;42.20;6.40
11423;DHT22;5768;51.476;7.210;2022-07-29T16:45:02;42.80;6.20
11423;DHT22;5768;51.476;7.210;2022-07-29T16:48:05;42.60;6.20
11423;DHT22;5768;51.476;7.210;2022-07-29T16:51:07;44.00;6.20
11423;DHT22;5768;51.476;7.210;2022-07-29T16:54:11;44.00;6.10
11423;DHT22;5768;51.476;7.210;2022-07-29T16:57:13;43.30;6.30
11423;DHT22;5768;51.476;7.210;2022-07-29T17:00:16;41.60;6.50
11423;DHT22;5768;51.476;7.210;2022-07-29T17:03:19;42.20;6.50
11423;DHT22;5768;51.476;7.210;2022-07-29T17:06:21;42.70;6.40
11423;DHT22;5768;51.476;7.210;2022-07-29T17:09:25;43.60;6.30
11423;DHT22;5768;51.476;7.210;2022-07-29T17:12:28;43.00;6.50
11423;DHT22;5768;51.476;7.210;2022-07-29T17:15:30;42.60;6.50
11423;DHT22;5768;51.476;7.210;2022-07-29T17:18:32;41.90;6.50
11423;DHT22;5768;51.476;7.210;2022-07-29T17:21:34;42.20;6.40
11423;DHT22;5768;51.476;7.210;2022-07-29T17:24:38;42.10;6.20
11423;DHT22;5768;51.476;7.210;2022-07-29T17:27:40;43.60;6.20
11423;DHT22;5768;51.476;7.210;2022-07-29T17:30:42;42.70;6.20
11423;DHT22;5768;51.476;7.210;2022-07-29T17:33:44;42.10;6.30
11423;DHT22;5768;51.476;7.210;2022-07-29T17:36:46;41.70;6.40
11423;DHT22;5768;51.476;7.210;2022-07-29T17:39:50;41.20;6.50
11423;DHT22;5768;51.476;7.210;2022-07-29T17:42:52;40.10;6.80
11423;DHT22;5768;51.476;7.210;2022-07-29T17:45:54;38.20;7.20
11423;DHT22;5768;51.476;7.210;2022-07-29T17:48:56;37.60;7.70
11423;DHT22;5768;51.476;7.210;2022-07-29T17:51:59;37.20;7.00
11423;DHT22;5768;51.476;7.210;2022-07-29T17:55:03;36.90;6.90
11423;DHT22;5768;51.476;7.210;2022-07-29T17:58:06;35.50;7.10
11423;DHT22;5768;51.476;7.210;2022-07-29T18:01:09;35.50;7.20
11423;DHT22;5768;51.476;7.210;2022-07-29T18:04:11;34.70;7.80
11423;DHT22;5768;51.476;7.210;2022-07-29T18:07:15;34.00;7.30
11423;DHT22;5768;51.476;7.210;2022-07-29T18:10:19;34.00;7.40
11423;DHT22;5768;51.476;7.210;2022-07-29T18:13:21;33.00;7.50
11423;DHT22;5768;51.476;7.210;2022-07-29T18:16:24;33.90;7.40
11423;DHT22;5768;51.476;7.210;2022-07-29T18:19:26;34.30;7.40
11423;DHT22;5768;51.476;7.210;2022-07-29T18:22:29;34.40;7.40
11423;DHT22;5768;51.476;7.210;2022-07-29T18:25:33;34.50;7.40
11423;DHT22;5768;51.476;7.210;2022-07-29T18:28:35;33.50;7.50
11423;DHT22;5768;51.476;7.210;2022-07-29T18:31:37;32.50;7.70
11423;DHT22;5768;51.476;7.210;2022-07-29T18:34:41;30.90;8.00
11423;DHT22;5768;51.476;7.210;2022-07-29T18:37:44;31.00;8.10
11423;DHT22;5768;51.476;7.210;2022-07-29T18:40:47;31.20;8.10
11423;DHT22;5768;51.476;7.210;2022-07-29T18:43:50;31.80;8.00
11423;DHT22;5768;51.476;7.210;2022-07-29T18:46:52;31.80;8.00
11423;DHT22;5768;51.476;7.210;2022-07-29T18:49:57;31.50;8.00
11423;DHT22;5768;51.476;7.210;2022-07-29T18:52:59;30.70;8.10
11423;DHT22;5768;51.476;7.210;2022-07-29T18:56:04;29.80;8.30
11423;DHT22;5768;51.476;7.210;2022-07-29T18:59:06;29.20;8.70
11423;DHT22;5768;51.476;7.210;2022-07-29T19:02:08;29.10;8.60
11423;DHT22;5768;51.476;7.210;2022-07-29T19:05:11;28.60;8.70
11423;DHT22;5768;51.476;7.210;2022-07-29T19:08:14;28.10;8.90
11423;DHT22;5768;51.476;7.210;2022-07-29T19:11:18;27.60;9.10
11423;DHT22;5768;51.476;7.210;2022-07-29T19:14:20;27.20;9.20
11423;DHT22;5768;51.476;7.210;2022-07-29T19:17:22;26.80;9.30
11423;DHT22;5768;51.476;7.210;2022-07-29T19:20:24;26.50;9.40
11423;DHT22;5768;51.476;7.210;2022-07-29T19:23:26;26.20;9.50
11423;DHT22;5768;51.476;7.210;2022-07-29T19:26:30;25.60;9.70
11423;DHT22;5768;51.476;7.210;2022-07-29T19:29:32;25.30;9.80
11423;DHT22;5768;51.476;7.210;2022-07-29T19:32:38;25.10;9.90
11423;DHT22;5768;51.476;7.210;2022-07-29T19:35:41;24.90;10.00
11423;DHT22;5768;51.476;7.210;2022-07-29T19:38:45;24.90;10.00
11423;DHT22;5768;51.476;7.210;2022-07-29T19:41:48;24.70;10.20
11423;DHT22;5768;51.476;7.210;2022-07-29T19:44:51;24.70;10.20
11423;DHT22;5768;51.476;7.210;2022-07-29T19:47:53;24.60;10.40
11423;DHT22;5768;51.476;7.210;2022-07-29T19:50:55;24.40;10.40
11423;DHT22;5768;51.476;7.210;2022-07-29T19:54:00;24.30;10.50
11423;DHT22;5768;51.476;7.210;2022-07-29T19:57:04;24.20;10.50